createdAt,value
2022-08-26T00:02:01.325Z,39.47
2022-08-26T00:04:29.735Z,39.50
2022-08-26T00:06:59.809Z,42.42
2022-08-26T00:09:28.881Z,44.45
2022-08-26T00:11:57.306Z,42.03
2022-08-26T00:14:30.943Z,44.03
2022-08-26T00:16:59.874Z,42.15
2022-08-26T00:19:28.904Z,43.38
2022-08-26T00:21:57.229Z,38.70
2022-08-26T00:24:27.208Z,37.03
2022-08-26T00:26:55.556Z,39.05
2022-08-26T00:29:24.045Z,37.85
2022-08-26T00:31:52.400Z,36.88
2022-08-26T00:34:20.708Z,37.65
2022-08-26T00:36:51.985Z,42.28
2022-08-26T00:39:21.080Z,34.97
2022-08-26T00:41:51.092Z,37.00
2022-08-26T00:44:20.164Z,35.63
2022-08-26T00:46:54.060Z,36.88
2022-08-26T00:49:30.973Z,33.92
2022-08-26T00:52:02.099Z,33.25
2022-08-26T00:54:35.579Z,35.38
2022-08-26T00:57:15.952Z,38.55
2022-08-26T00:59:48.743Z,35.45
2022-08-26T01:02:20.117Z,33.58
2022-08-26T01:04:55.825Z,37.45
2022-08-26T01:07:27.492Z,36.10
2022-08-26T01:09:59.921Z,36.80
2022-08-26T01:12:34.826Z,33.33
2022-08-26T01:15:09.716Z,33.47
2022-08-26T01:17:40.293Z,33.13
2022-08-26T01:20:20.359Z,33.75
2022-08-26T01:22:57.535Z,36.70
2022-08-26T01:25:29.472Z,34.88
2022-08-26T01:28:01.309Z,35.53
2022-08-26T01:30:31.854Z,35.55
2022-08-26T01:33:08.813Z,35.63
2022-08-26T01:35:38.604Z,35.97
2022-08-26T01:38:08.379Z,36.97
2022-08-26T01:40:43.195Z,41.47
2022-08-26T01:43:18.424Z,44.25
2022-08-26T01:45:49.424Z,39.85
2022-08-26T01:48:28.507Z,38.92
2022-08-26T01:50:57.362Z,36.50
2022-08-26T01:53:28.261Z,41.38
2022-08-26T01:56:02.225Z,37.60
2022-08-26T01:58:37.341Z,37.13
2022-08-26T02:01:07.124Z,38.42
2022-08-26T02:03:48.753Z,34.72
2022-08-26T02:06:18.488Z,35.05
2022-08-26T02:08:55.278Z,33.28
2022-08-26T02:11:23.963Z,34.78
2022-08-26T02:14:01.637Z,36.80
2022-08-26T02:16:39.713Z,35.80
2022-08-26T02:19:17.006Z,33.53
2022-08-26T02:21:50.987Z,34.75
2022-08-26T02:24:27.504Z,38.22
2022-08-26T02:26:57.507Z,34.22
2022-08-26T02:29:32.863Z,32.78
2022-08-26T02:32:01.253Z,33.67
2022-08-26T02:34:33.080Z,30.75
2022-08-26T02:37:05.964Z,31.13
2022-08-26T02:39:38.358Z,28.70
2022-08-26T02:44:35.597Z,25.90
2022-08-26T02:47:04.560Z,27.35
2022-08-26T02:49:33.769Z,27.23
2022-08-26T02:52:02.356Z,28.00
2022-08-26T02:54:31.829Z,26.15
2022-08-26T02:57:04.220Z,24.70
2022-08-26T02:59:36.419Z,24.33
2022-08-26T03:02:05.111Z,26.63
2022-08-26T03:04:33.833Z,25.85
2022-08-26T03:07:02.954Z,22.40
2022-08-26T03:09:31.494Z,23.08
2022-08-26T03:12:00.226Z,22.63
2022-08-26T03:14:30.175Z,21.55
2022-08-26T03:16:58.494Z,21.17
2022-08-26T03:19:28.080Z,22.55
2022-08-26T03:21:57.891Z,22.25
2022-08-26T03:24:27.587Z,22.13
2022-08-26T03:26:56.133Z,23.48
2022-08-26T03:29:42.961Z,21.25
2022-08-26T03:32:13.084Z,20.70
2022-08-26T03:34:41.842Z,22.23
2022-08-26T03:37:10.717Z,21.23
2022-08-26T03:39:39.005Z,22.95
2022-08-26T03:42:09.158Z,22.58
2022-08-26T03:44:42.140Z,22.85
2022-08-26T03:47:12.197Z,21.40
2022-08-26T03:49:41.769Z,20.33
2022-08-26T03:52:10.574Z,20.65
2022-08-26T03:54:40.900Z,21.60
2022-08-26T03:57:11.809Z,21.58
2022-08-26T03:59:41.357Z,24.42
2022-08-26T04:02:11.606Z,22.40
2022-08-26T04:04:41.720Z,23.08
2022-08-26T04:07:10.383Z,24.80
2022-08-26T04:09:38.756Z,22.55
2022-08-26T04:12:09.769Z,22.00
2022-08-26T04:14:39.830Z,22.85
2022-08-26T04:17:08.258Z,24.17
2022-08-26T04:19:36.607Z,22.90
2022-08-26T04:22:06.481Z,23.45
2022-08-26T04:24:36.242Z,21.30
2022-08-26T04:27:04.625Z,20.02
2022-08-26T04:29:36.547Z,21.73
2022-08-26T04:32:08.663Z,20.13
2022-08-26T04:34:38.400Z,20.80
2022-08-26T04:37:09.775Z,20.95
2022-08-26T04:39:38.142Z,19.95
2022-08-26T04:42:07.581Z,18.60
2022-08-26T04:44:38.787Z,18.35
2022-08-26T04:47:08.373Z,19.77
2022-08-26T04:49:38.214Z,19.45
2022-08-26T04:52:08.051Z,19.35
2022-08-26T04:54:36.432Z,18.42
2022-08-26T04:57:05.250Z,17.90
2022-08-26T04:59:38.486Z,18.73
2022-08-26T05:02:08.727Z,16.50
2022-08-26T05:04:37.603Z,16.45
2022-08-26T05:07:07.777Z,15.98
2022-08-26T05:09:41.721Z,17.25
2022-08-26T05:12:10.447Z,17.92
2022-08-26T05:14:41.429Z,16.60
2022-08-26T05:17:09.802Z,17.13
2022-08-26T05:19:43.282Z,16.45
2022-08-26T05:22:13.206Z,16.98
2022-08-26T05:24:43.237Z,16.10
2022-08-26T05:27:12.516Z,16.58
2022-08-26T05:29:41.103Z,16.33
2022-08-26T05:32:09.618Z,16.23
2022-08-26T05:34:39.827Z,16.83
2022-08-26T05:37:11.213Z,16.47
2022-08-26T05:39:48.800Z,16.00
2022-08-26T05:42:20.659Z,17.38
2022-08-26T05:44:56.023Z,16.80
2022-08-26T05:47:25.330Z,15.90
2022-08-26T05:49:54.450Z,15.00
2022-08-26T05:52:24.636Z,15.25
2022-08-26T05:54:55.842Z,13.47
2022-08-26T05:57:24.139Z,14.23
2022-08-26T05:59:52.934Z,14.82
2022-08-26T06:02:21.292Z,14.93
2022-08-26T06:04:49.721Z,14.80
2022-08-26T06:07:40.562Z,16.58
2022-08-26T06:10:32.457Z,13.60
2022-08-26T06:13:09.394Z,14.55
2022-08-26T06:15:45.729Z,14.88
2022-08-26T06:18:15.499Z,13.85
2022-08-26T06:20:49.526Z,14.25
2022-08-26T06:26:16.964Z,14.40
2022-08-26T06:28:45.909Z,13.83
2022-08-26T06:31:15.583Z,14.23
2022-08-26T06:33:44.939Z,14.05
2022-08-26T06:36:19.366Z,15.23
2022-08-26T06:38:49.229Z,14.98
2022-08-26T06:41:20.920Z,12.50
2022-08-26T06:43:49.496Z,14.15
2022-08-26T06:46:21.464Z,14.43
2022-08-26T06:48:50.785Z,13.25
2022-08-26T06:51:22.397Z,12.40
2022-08-26T06:53:54.541Z,13.27
2022-08-26T06:56:27.863Z,12.82
2022-08-26T06:58:56.413Z,12.27
2022-08-26T07:01:27.836Z,11.20
2022-08-26T07:03:58.799Z,11.80
2022-08-26T07:06:28.730Z,11.40
2022-08-26T07:09:05.707Z,11.45
2022-08-26T07:11:40.627Z,12.25
2022-08-26T07:14:10.057Z,11.95
2022-08-26T07:16:41.084Z,11.52
2022-08-26T07:19:11.302Z,11.20
2022-08-26T07:21:41.938Z,12.77
2022-08-26T07:24:11.528Z,11.88
2022-08-26T07:26:42.865Z,11.48
2022-08-26T07:29:12.664Z,10.80
2022-08-26T07:31:42.379Z,12.35
2022-08-26T07:34:13.816Z,10.90
2022-08-26T07:36:42.407Z,10.60
2022-08-26T07:39:10.951Z,9.80
2022-08-26T07:41:42.394Z,9.95
2022-08-26T07:44:12.262Z,10.32
2022-08-26T07:46:40.958Z,10.18
2022-08-26T07:49:13.407Z,8.60
2022-08-26T07:51:44.838Z,8.27
2022-08-26T07:54:13.191Z,8.20
2022-08-26T07:56:44.304Z,8.35
2022-08-26T07:59:13.762Z,7.78
2022-08-26T08:01:44.912Z,7.25
2022-08-26T08:04:14.918Z,7.55
2022-08-26T08:06:44.646Z,6.63
2022-08-26T08:09:14.833Z,6.70
2022-08-26T08:11:46.737Z,6.30
2022-08-26T08:14:18.144Z,6.15
2022-08-26T08:16:51.198Z,6.28
2022-08-26T08:19:24.384Z,6.55
2022-08-26T08:22:17.050Z,6.40
2022-08-26T08:24:49.849Z,6.63
2022-08-26T08:27:24.094Z,5.40
2022-08-26T08:29:54.255Z,6.65
2022-08-26T08:32:24.372Z,6.65
2022-08-26T08:34:52.927Z,6.55
2022-08-26T08:37:21.387Z,5.97
2022-08-26T08:39:50.077Z,6.07
2022-08-26T08:42:45.665Z,6.15
2022-08-26T08:45:20.843Z,6.40
2022-08-26T08:47:56.384Z,5.80
2022-08-26T08:50:31.743Z,5.22
2022-08-26T08:53:11.854Z,5.45
2022-08-26T08:55:54.398Z,6.68
2022-08-26T09:01:06.878Z,6.00
2022-08-26T09:03:48.787Z,6.38
2022-08-26T09:06:20.403Z,6.32
2022-08-26T09:08:50.790Z,6.80
2022-08-26T09:11:21.174Z,6.30
2022-08-26T09:13:54.401Z,6.88
2022-08-26T09:16:29.500Z,5.50
2022-08-26T09:19:19.240Z,6.97
2022-08-26T09:21:55.499Z,7.20
2022-08-26T09:24:28.571Z,6.82
2022-08-26T09:26:59.082Z,6.20
2022-08-26T09:29:33.905Z,6.70
2022-08-26T09:32:19.568Z,5.97
2022-08-26T09:34:59.784Z,5.57
2022-08-26T09:37:41.297Z,5.43
2022-08-26T09:40:19.208Z,5.78
2022-08-26T09:42:48.872Z,5.63
2022-08-26T09:45:29.928Z,5.60
2022-08-26T09:48:01.340Z,5.75
2022-08-26T09:50:34.518Z,4.95
2022-08-26T09:53:16.484Z,5.30
2022-08-26T09:55:47.563Z,4.55
2022-08-26T09:58:34.709Z,4.40
2022-08-26T10:01:10.740Z,4.35
2022-08-26T10:03:42.118Z,4.78
2022-08-26T10:06:26.729Z,4.63
2022-08-26T10:08:59.994Z,5.63
2022-08-26T10:11:38.989Z,4.90
2022-08-26T10:14:15.083Z,4.80
2022-08-26T10:16:51.013Z,5.30
2022-08-26T10:19:25.242Z,5.90
2022-08-26T10:22:03.482Z,5.82
2022-08-26T10:24:43.847Z,4.80
2022-08-26T10:27:26.569Z,4.60
2022-08-26T10:30:04.968Z,4.85
2022-08-26T10:32:40.756Z,4.90
2022-08-26T10:35:14.336Z,4.65
2022-08-26T10:37:47.324Z,3.97
2022-08-26T10:40:25.836Z,3.83
2022-08-26T10:43:09.970Z,4.28
2022-08-26T10:45:47.890Z,4.15
2022-08-26T10:48:35.830Z,2.90
2022-08-26T10:51:05.724Z,5.03
2022-08-26T10:53:51.425Z,4.45
2022-08-26T10:56:39.990Z,4.22
2022-08-26T10:59:18.029Z,4.00
2022-08-26T11:01:54.772Z,4.05
2022-08-26T11:04:45.743Z,5.38
2022-08-26T11:07:43.596Z,4.18
2022-08-26T11:10:58.858Z,4.65
2022-08-26T11:14:01.341Z,4.20
2022-08-26T11:16:43.568Z,4.83
2022-08-26T11:20:02.219Z,4.10
2022-08-26T11:22:35.522Z,4.78
2022-08-26T11:25:11.801Z,3.83
2022-08-26T11:28:05.336Z,3.65
2022-08-26T11:30:56.922Z,4.28
2022-08-26T11:33:52.483Z,4.20
2022-08-26T11:36:59.662Z,4.45
2022-08-26T11:39:38.378Z,4.32
2022-08-26T11:42:31.053Z,6.05
2022-08-26T11:45:04.694Z,4.70
2022-08-26T11:47:34.288Z,4.45
2022-08-26T11:50:12.893Z,5.05
2022-08-26T11:52:41.326Z,4.82
2022-08-26T11:55:15.048Z,4.75
2022-08-26T11:57:47.179Z,3.70
2022-08-26T12:00:23.085Z,4.13
2022-08-26T12:02:53.467Z,5.47
2022-08-26T12:05:30.947Z,4.80
2022-08-26T12:08:08.221Z,4.40
2022-08-26T12:10:40.439Z,3.88
2022-08-26T12:13:10.092Z,3.92
2022-08-26T12:15:38.873Z,4.72
2022-08-26T12:18:29.348Z,4.68
2022-08-26T12:21:02.050Z,4.75
2022-08-26T12:23:43.869Z,4.55
2022-08-26T12:26:23.397Z,4.70
2022-08-26T12:28:57.471Z,3.80
2022-08-26T12:31:38.166Z,3.67
2022-08-26T12:34:17.554Z,4.13
2022-08-26T12:36:50.407Z,4.40
2022-08-26T12:39:30.228Z,4.35
2022-08-26T12:42:01.803Z,4.28
2022-08-26T12:44:54.290Z,3.93
2022-08-26T12:47:35.191Z,4.40
2022-08-26T12:50:20.881Z,3.17
2022-08-26T12:53:01.672Z,3.17
2022-08-26T12:55:40.969Z,3.10
2022-08-26T12:58:27.913Z,3.00
2022-08-26T13:00:58.638Z,3.50
2022-08-26T13:03:44.440Z,3.97
2022-08-26T13:06:18.717Z,3.70
2022-08-26T13:08:48.223Z,2.78
2022-08-26T13:11:20.469Z,2.95
2022-08-26T13:13:53.641Z,3.20
2022-08-26T13:16:23.455Z,3.20
2022-08-26T13:18:54.717Z,3.83
2022-08-26T13:21:27.444Z,3.22
2022-08-26T13:23:56.121Z,3.22
2022-08-26T13:26:25.170Z,3.70
2022-08-26T13:29:01.870Z,2.88
2022-08-26T13:31:34.515Z,3.80
2022-08-26T13:34:03.568Z,3.90
2022-08-26T13:36:31.953Z,3.33
2022-08-26T13:39:00.613Z,3.28
2022-08-26T13:41:29.830Z,3.33
2022-08-26T13:44:00.700Z,3.65
2022-08-26T13:46:30.397Z,4.78
2022-08-26T13:48:59.735Z,4.28
2022-08-26T13:51:29.019Z,4.53
2022-08-26T13:53:57.563Z,4.85
2022-08-26T13:56:29.855Z,4.68
2022-08-26T13:59:01.131Z,4.57
2022-08-26T14:01:32.184Z,3.35
2022-08-26T14:04:02.377Z,4.22
2022-08-26T14:06:30.762Z,3.58
2022-08-26T14:08:59.193Z,3.75
2022-08-26T14:11:30.020Z,3.67
2022-08-26T14:14:18.200Z,3.42
2022-08-26T14:16:58.618Z,3.30
2022-08-26T14:19:29.911Z,4.57
2022-08-26T14:22:00.629Z,3.97
2022-08-26T14:24:29.787Z,4.10
2022-08-26T14:26:58.493Z,4.70
2022-08-26T14:29:28.283Z,4.93
2022-08-26T14:31:58.592Z,5.05
2022-08-26T14:34:27.162Z,5.90
2022-08-26T14:36:55.503Z,5.72
2022-08-26T14:39:23.851Z,5.22
2022-08-26T14:41:56.720Z,5.38
2022-08-26T14:44:31.124Z,4.32
2022-08-26T14:47:03.201Z,5.00
2022-08-26T14:49:32.173Z,5.18
2022-08-26T14:52:01.009Z,3.80
2022-08-26T14:54:29.462Z,4.80
2022-08-26T14:57:02.184Z,4.93
2022-08-26T14:59:34.769Z,4.13
2022-08-26T15:04:32.201Z,5.07
2022-08-26T15:07:03.144Z,4.40
2022-08-26T15:09:35.379Z,4.07
2022-08-26T15:12:04.723Z,4.47
2022-08-26T15:14:34.625Z,4.00
2022-08-26T15:17:03.312Z,5.35
2022-08-26T15:19:31.716Z,4.95
2022-08-26T15:22:00.294Z,4.72
2022-08-26T15:24:29.671Z,3.45
2022-08-26T15:26:58.348Z,4.43
2022-08-26T15:29:26.627Z,4.30
2022-08-26T15:31:57.323Z,3.38
2022-08-26T15:34:26.503Z,3.55
2022-08-26T15:36:55.189Z,3.30
2022-08-26T15:39:23.610Z,3.25
2022-08-26T15:41:51.976Z,4.03
2022-08-26T15:44:20.579Z,3.10
2022-08-26T15:46:53.294Z,3.75
2022-08-26T15:49:25.417Z,4.65
2022-08-26T15:51:53.861Z,4.80
2022-08-26T15:54:24.392Z,4.40
2022-08-26T15:56:53.727Z,4.45
2022-08-26T15:59:23.290Z,4.32
2022-08-26T16:01:52.388Z,3.35
2022-08-26T16:04:21.469Z,3.95
2022-08-26T16:06:52.519Z,4.05
2022-08-26T16:09:24.354Z,4.03
2022-08-26T16:11:52.890Z,4.10
2022-08-26T16:14:22.381Z,3.88
2022-08-26T16:16:51.480Z,3.80
2022-08-26T16:19:20.019Z,3.75
2022-08-26T16:21:51.377Z,3.72
2022-08-26T16:24:24.850Z,4.43
2022-08-26T16:26:55.839Z,3.90
2022-08-26T16:29:25.801Z,3.60
2022-08-26T16:31:55.119Z,3.15
2022-08-26T16:34:23.797Z,3.20
2022-08-26T16:36:53.882Z,2.60
2022-08-26T16:39:22.143Z,3.10
2022-08-26T16:41:50.539Z,3.38
2022-08-26T16:44:19.272Z,3.42
2022-08-26T16:46:47.933Z,3.08
2022-08-26T16:49:16.571Z,3.20
2022-08-26T16:51:44.860Z,3.38
2022-08-26T16:54:14.826Z,3.13
2022-08-26T16:56:43.183Z,2.30
2022-08-26T16:59:12.062Z,3.30
2022-08-26T17:01:40.579Z,2.95
2022-08-26T17:04:08.987Z,3.08
2022-08-26T17:06:38.228Z,2.70
2022-08-26T17:09:07.153Z,3.50
2022-08-26T17:11:36.928Z,3.30
2022-08-26T17:14:06.012Z,2.92
2022-08-26T17:16:34.846Z,3.55
2022-08-26T17:19:04.467Z,2.67
2022-08-26T17:21:34.836Z,3.00
2022-08-26T17:24:04.899Z,2.75
2022-08-26T17:26:33.295Z,2.90
2022-08-26T17:29:03.065Z,2.78
2022-08-26T17:31:32.439Z,3.67
2022-08-26T17:34:00.889Z,3.25
2022-08-26T17:36:29.294Z,2.95
2022-08-26T17:38:59.204Z,3.25
2022-08-26T17:41:28.065Z,3.33
2022-08-26T17:43:57.077Z,3.10
2022-08-26T17:46:27.487Z,3.50
2022-08-26T17:48:56.318Z,2.55
2022-08-26T17:51:25.091Z,2.88
2022-08-26T17:53:53.887Z,3.22
2022-08-26T17:56:25.540Z,3.40
2022-08-26T17:58:55.215Z,2.80
2022-08-26T18:01:28.731Z,3.38
2022-08-26T18:04:00.429Z,3.58
2022-08-26T18:08:59.197Z,3.60
2022-08-26T18:11:28.576Z,5.28
2022-08-26T18:13:57.001Z,5.22
2022-08-26T18:16:27.000Z,4.60
2022-08-26T18:18:55.426Z,4.55
2022-08-26T18:21:27.272Z,5.47
2022-08-26T18:23:56.318Z,5.53
2022-08-26T18:26:29.542Z,5.10
2022-08-26T18:28:57.911Z,5.32
2022-08-26T18:31:27.951Z,5.18
2022-08-26T18:33:56.794Z,6.20
2022-08-26T18:36:29.951Z,5.47
2022-08-26T18:39:00.195Z,6.28
2022-08-26T18:41:32.442Z,7.32
2022-08-26T18:44:00.807Z,5.72
2022-08-26T18:46:30.545Z,6.18
2022-08-26T18:48:59.556Z,6.75
2022-08-26T18:51:32.269Z,6.30
2022-08-26T18:54:03.354Z,5.65
2022-08-26T18:56:35.112Z,5.10
2022-08-26T18:59:05.218Z,5.53
2022-08-26T19:01:37.449Z,5.63
2022-08-26T19:04:07.937Z,4.55
2022-08-26T19:06:38.866Z,4.72
2022-08-26T19:09:10.259Z,4.72
2022-08-26T19:11:43.038Z,4.80
2022-08-26T19:14:14.652Z,4.15
2022-08-26T19:16:46.588Z,4.45
2022-08-26T19:19:16.069Z,3.92
2022-08-26T19:21:44.564Z,3.83
2022-08-26T19:24:17.298Z,4.03
2022-08-26T19:26:48.434Z,3.63
2022-08-26T19:31:52.694Z,3.53
2022-08-26T19:34:21.135Z,2.95
2022-08-26T19:36:52.025Z,2.88
2022-08-26T19:39:21.071Z,3.10
2022-08-26T19:41:50.008Z,3.20
2022-08-26T19:44:34.984Z,2.67
2022-08-26T19:47:06.240Z,2.83
2022-08-26T19:49:34.933Z,2.67
2022-08-26T19:52:03.932Z,3.08
2022-08-26T19:54:32.291Z,3.35
2022-08-26T19:57:00.616Z,3.15
2022-08-26T19:59:29.016Z,2.70
2022-08-26T20:02:01.408Z,2.70
2022-08-26T20:04:32.814Z,2.75
2022-08-26T20:07:03.841Z,2.75
2022-08-26T20:09:35.045Z,3.22
2022-08-26T20:12:10.872Z,3.22
2022-08-26T20:14:39.351Z,3.20
2022-08-26T20:17:08.703Z,3.15
2022-08-26T20:19:56.292Z,2.42
2022-08-26T20:22:25.435Z,2.80
2022-08-26T20:24:56.635Z,3.05
2022-08-26T20:27:37.692Z,2.40
2022-08-26T20:30:10.245Z,3.23
2022-08-26T20:32:39.784Z,2.95
2022-08-26T20:35:13.885Z,2.50
2022-08-26T20:37:43.006Z,2.63
2022-08-26T20:40:14.340Z,2.67
2022-08-26T20:42:45.224Z,2.42
2022-08-26T20:45:13.535Z,2.42
2022-08-26T20:47:43.946Z,2.60
2022-08-26T20:50:13.832Z,2.58
2022-08-26T20:52:42.493Z,3.03
2022-08-26T20:55:11.603Z,3.25
2022-08-26T20:57:43.163Z,2.60
2022-08-26T21:00:15.917Z,2.40
2022-08-26T21:02:49.216Z,2.65
2022-08-26T21:05:22.361Z,2.33
2022-08-26T21:07:51.369Z,3.40
2022-08-26T21:10:22.332Z,2.63
2022-08-26T21:12:52.599Z,2.33
2022-08-26T21:15:23.636Z,2.88
2022-08-26T21:17:52.381Z,2.70
2022-08-26T21:20:22.712Z,2.50
2022-08-26T21:22:52.270Z,2.63
2022-08-26T21:25:21.211Z,2.88
2022-08-26T21:27:49.613Z,3.22
2022-08-26T21:30:18.077Z,3.28
2022-08-26T21:32:47.821Z,2.80
2022-08-26T21:35:19.319Z,3.30
2022-08-26T21:37:50.999Z,3.45
2022-08-26T21:40:19.626Z,3.08
2022-08-26T21:42:48.403Z,3.05
2022-08-26T21:45:17.020Z,3.90
2022-08-26T21:47:45.491Z,4.35
2022-08-26T21:50:14.567Z,3.65
2022-08-26T21:52:42.930Z,4.32
2022-08-26T21:55:13.277Z,4.25
2022-08-26T21:57:41.994Z,4.45
2022-08-26T22:00:15.554Z,4.15
2022-08-26T22:02:44.282Z,4.38
2022-08-26T22:05:12.823Z,4.15
2022-08-26T22:07:41.232Z,3.35
2022-08-26T22:10:10.081Z,4.03
2022-08-26T22:12:41.053Z,3.25
2022-08-26T22:15:12.122Z,3.47
2022-08-26T22:17:41.100Z,3.13
2022-08-26T22:20:16.524Z,3.20
2022-08-26T22:22:46.747Z,3.45
2022-08-26T22:25:15.311Z,2.50
2022-08-26T22:27:44.986Z,3.00
2022-08-26T22:30:14.113Z,2.65
2022-08-26T22:32:48.680Z,3.00
2022-08-26T22:35:28.206Z,2.65
2022-08-26T22:37:57.768Z,2.95
2022-08-26T22:40:26.464Z,2.92
2022-08-26T22:42:58.761Z,2.80
2022-08-26T22:45:29.196Z,2.30
2022-08-26T22:47:58.451Z,2.80
2022-08-26T22:50:27.485Z,2.60
2022-08-26T22:52:55.933Z,2.53
2022-08-26T22:55:24.348Z,2.97
2022-08-26T22:57:53.033Z,2.10
2022-08-26T23:00:32.122Z,2.15
2022-08-26T23:03:02.171Z,2.42
2022-08-26T23:05:31.939Z,2.30
2022-08-26T23:08:01.002Z,2.53
2022-08-26T23:10:29.925Z,2.60
2022-08-26T23:12:58.664Z,2.50
2022-08-26T23:15:28.764Z,2.30
2022-08-26T23:17:58.779Z,2.15
2022-08-26T23:20:28.763Z,2.33
2022-08-26T23:22:59.959Z,2.80
2022-08-26T23:25:29.712Z,2.20
2022-08-26T23:28:02.784Z,2.17
2022-08-26T23:30:34.410Z,2.50
2022-08-26T23:33:02.904Z,2.50
2022-08-26T23:35:30.495Z,3.65
2022-08-26T23:37:59.227Z,4.30
2022-08-26T23:40:32.830Z,2.10
2022-08-26T23:43:04.286Z,1.90
2022-08-26T23:45:35.510Z,2.20
2022-08-26T23:48:04.515Z,1.95
2022-08-26T23:50:50.755Z,2.55
2022-08-26T23:53:22.962Z,2.50
2022-08-26T23:55:54.012Z,2.20
2022-08-26T23:58:23.074Z,2.28
